createdAt,value
2019-05-30T00:00:26.167Z,2.40
2019-05-30T00:05:30.355Z,2.55
2019-05-30T00:10:34.541Z,2.75
2019-05-30T00:15:38.766Z,2.20
2019-05-30T00:20:43.003Z,2.33
2019-05-30T00:25:47.189Z,2.20
2019-05-30T00:30:51.722Z,2.95
2019-05-30T00:35:55.921Z,2.67
2019-05-30T00:41:00.122Z,2.47
2019-05-30T00:46:04.314Z,3.20
2019-05-30T00:51:08.565Z,6.40
2019-05-30T00:56:12.785Z,3.35
2019-05-30T01:01:16.989Z,2.90
2019-05-30T01:06:21.194Z,2.45
2019-05-30T01:11:25.355Z,2.20
2019-05-30T01:16:29.557Z,2.40
2019-05-30T01:21:33.770Z,2.80
2019-05-30T01:26:37.953Z,2.92
2019-05-30T01:31:42.183Z,2.67
2019-05-30T01:36:46.376Z,2.92
2019-05-30T01:41:50.606Z,2.40
2019-05-30T01:46:54.791Z,2.33
2019-05-30T01:52:00.280Z,3.35
2019-05-30T01:57:04.945Z,3.08
2019-05-30T02:02:09.658Z,2.47
2019-05-30T02:07:13.852Z,2.72
2019-05-30T02:12:18.025Z,3.08
2019-05-30T02:17:22.216Z,3.12
2019-05-30T02:22:26.486Z,3.15
2019-05-30T02:27:30.672Z,2.87
2019-05-30T02:32:34.871Z,2.75
2019-05-30T02:37:39.051Z,3.10
2019-05-30T02:42:43.242Z,2.83
2019-05-30T02:47:47.445Z,3.42
2019-05-30T02:52:51.629Z,3.08
2019-05-30T02:57:55.831Z,3.20
2019-05-30T03:03:01.766Z,2.80
2019-05-30T03:08:09.031Z,2.85
2019-05-30T03:13:13.007Z,3.30
2019-05-30T03:18:17.456Z,3.00
2019-05-30T03:23:21.686Z,3.10
2019-05-30T03:28:25.878Z,2.77
2019-05-30T03:33:39.423Z,2.72
2019-05-30T03:38:35.988Z,3.45
2019-05-30T03:43:40.189Z,2.80
2019-05-30T03:48:47.827Z,2.85
2019-05-30T03:53:52.779Z,3.35
2019-05-30T03:59:20.736Z,3.10
2019-05-30T04:04:29.395Z,2.80
2019-05-30T04:09:36.314Z,3.00
2019-05-30T04:14:43.707Z,2.92
2019-05-30T04:19:47.889Z,4.37
2019-05-30T04:24:52.129Z,3.43
2019-05-30T04:29:56.338Z,3.20
2019-05-30T04:35:00.518Z,3.37
2019-05-30T04:40:05.307Z,2.90
2019-05-30T04:45:11.695Z,3.77
2019-05-30T04:50:16.485Z,3.53
2019-05-30T04:55:23.014Z,3.37
2019-05-30T05:00:26.944Z,3.87
2019-05-30T05:05:31.144Z,3.80
2019-05-30T05:10:35.317Z,3.50
2019-05-30T05:15:39.504Z,3.20
2019-05-30T05:20:43.727Z,2.93
2019-05-30T05:26:00.298Z,3.67
2019-05-30T05:30:53.868Z,3.52
2019-05-30T05:35:58.081Z,2.60
2019-05-30T05:41:02.286Z,3.52
2019-05-30T05:46:06.521Z,3.00
2019-05-30T05:51:10.730Z,3.10
2019-05-30T05:56:14.921Z,3.75
2019-05-30T06:01:19.444Z,2.55
2019-05-30T06:06:23.783Z,2.95
2019-05-30T06:11:28.906Z,3.10
2019-05-30T06:16:33.273Z,2.80
2019-05-30T06:21:52.779Z,2.55
2019-05-30T06:26:43.376Z,2.27
2019-05-30T06:31:47.607Z,2.40
2019-05-30T06:36:51.808Z,2.55
2019-05-30T06:41:55.994Z,2.75
2019-05-30T06:47:00.195Z,2.55
2019-05-30T06:52:04.404Z,2.70
2019-05-30T06:57:08.654Z,2.50
2019-05-30T07:02:12.859Z,2.10
2019-05-30T07:07:17.466Z,2.45
2019-05-30T07:12:22.803Z,2.37
2019-05-30T07:17:27.447Z,2.30
2019-05-30T07:22:31.893Z,2.12
2019-05-30T07:27:36.312Z,2.20
2019-05-30T07:32:40.545Z,4.83
2019-05-30T07:37:46.642Z,2.47
2019-05-30T07:42:50.667Z,2.20
2019-05-30T07:47:54.864Z,2.27
2019-05-30T07:52:59.049Z,2.25
2019-05-30T07:58:03.262Z,1.90
2019-05-30T08:03:07.474Z,2.85
2019-05-30T08:08:11.677Z,2.15
2019-05-30T08:13:15.949Z,2.30
2019-05-30T08:18:20.146Z,5.40
2019-05-30T08:23:24.380Z,4.08
2019-05-30T08:28:28.830Z,1.60
2019-05-30T08:33:33.618Z,1.40
2019-05-30T08:38:37.911Z,1.77
2019-05-30T08:43:42.159Z,2.17
2019-05-30T08:48:46.367Z,1.60
2019-05-30T08:53:50.583Z,2.15
2019-05-30T08:58:54.844Z,1.77
2019-05-30T09:03:59.080Z,0.90
2019-05-30T09:09:03.619Z,1.37
2019-05-30T09:14:07.836Z,1.12
2019-05-30T09:19:12.093Z,1.40
2019-05-30T09:24:16.296Z,1.10
2019-05-30T09:29:20.506Z,1.80
2019-05-30T09:34:24.726Z,1.67
2019-05-30T09:39:29.835Z,1.00
2019-05-30T09:44:34.123Z,1.40
2019-05-30T09:49:38.333Z,1.25
2019-05-30T09:54:43.072Z,1.50
2019-05-30T09:59:48.671Z,1.30
2019-05-30T10:04:54.381Z,1.37
2019-05-30T10:09:58.609Z,1.40
2019-05-30T10:15:03.058Z,1.10
2019-05-30T10:20:08.098Z,1.32
2019-05-30T10:25:12.738Z,1.25
2019-05-30T10:30:17.528Z,1.62
2019-05-30T10:35:22.043Z,1.00
2019-05-30T10:40:26.452Z,1.30
2019-05-30T10:45:30.809Z,1.10
2019-05-30T10:50:35.013Z,1.00
2019-05-30T10:55:39.329Z,1.60
2019-05-30T11:00:48.970Z,1.20
2019-05-30T11:06:15.805Z,1.00
2019-05-30T11:11:20.033Z,1.00
2019-05-30T11:16:24.255Z,1.60
2019-05-30T11:21:28.459Z,1.20
2019-05-30T11:26:32.715Z,1.15
2019-05-30T11:31:36.939Z,1.32
2019-05-30T11:36:41.154Z,1.22
2019-05-30T11:41:45.342Z,1.20
2019-05-30T11:46:49.579Z,1.10
2019-05-30T11:51:53.859Z,1.57
2019-05-30T11:56:58.182Z,1.12
2019-05-30T12:02:02.431Z,1.10
2019-05-30T12:07:06.651Z,1.00
2019-05-30T12:12:11.129Z,1.35
2019-05-30T12:17:15.347Z,1.20
2019-05-30T12:22:19.545Z,1.32
2019-05-30T12:27:23.799Z,1.30
2019-05-30T12:32:28.130Z,1.20
2019-05-30T12:37:32.334Z,1.10
2019-05-30T12:42:36.534Z,1.27
2019-05-30T12:47:40.730Z,1.30
2019-05-30T12:52:44.928Z,1.57
2019-05-30T12:57:49.250Z,1.80
2019-05-30T13:02:54.622Z,1.40
2019-05-30T13:08:16.499Z,1.05
2019-05-30T13:13:06.177Z,1.42
2019-05-30T13:18:10.470Z,1.72
2019-05-30T13:23:14.644Z,1.65
2019-05-30T13:28:18.856Z,1.37
2019-05-30T13:33:23.103Z,1.35
2019-05-30T13:38:27.311Z,1.47
2019-05-30T13:43:31.513Z,1.40
2019-05-30T13:48:35.755Z,1.60
2019-05-30T13:53:39.958Z,1.40
2019-05-30T13:58:44.176Z,1.30
2019-05-30T14:03:48.471Z,1.35
2019-05-30T14:08:52.642Z,1.30
2019-05-30T14:13:56.829Z,6.67
2019-05-30T14:19:01.113Z,1.77
2019-05-30T14:24:05.386Z,1.32
2019-05-30T14:29:09.845Z,1.50
2019-05-30T14:34:14.070Z,1.17
2019-05-30T14:39:18.988Z,1.30
2019-05-30T14:44:23.743Z,1.60
2019-05-30T14:49:27.997Z,1.47
2019-05-30T14:54:32.204Z,1.30
2019-05-30T14:59:36.404Z,1.50
2019-05-30T15:04:40.613Z,1.47
2019-05-30T15:09:44.841Z,1.72
2019-05-30T15:14:49.046Z,1.75
2019-05-30T15:19:53.300Z,1.80
2019-05-30T15:24:57.487Z,1.90
2019-05-30T15:30:01.721Z,1.90
2019-05-30T15:35:08.648Z,2.05
2019-05-30T15:40:15.171Z,1.67
2019-05-30T15:45:19.631Z,1.50
2019-05-30T15:50:23.816Z,2.15
2019-05-30T15:55:28.103Z,2.02
2019-05-30T16:00:32.311Z,1.70
2019-05-30T16:05:36.528Z,1.80
2019-05-30T16:10:40.735Z,1.90
2019-05-30T16:15:45.082Z,1.95
2019-05-30T16:20:49.309Z,2.62
2019-05-30T16:25:53.753Z,1.90
2019-05-30T16:30:58.148Z,2.10
2019-05-30T16:36:02.549Z,1.80
2019-05-30T16:41:06.765Z,1.82
2019-05-30T16:46:10.992Z,2.20
2019-05-30T16:51:15.185Z,2.00
2019-05-30T16:56:19.467Z,2.15
2019-05-30T17:01:24.200Z,2.40
2019-05-30T17:06:28.562Z,2.02
2019-05-30T17:11:32.859Z,1.82
2019-05-30T17:16:37.129Z,1.62
2019-05-30T17:21:41.420Z,2.25
2019-05-30T17:26:45.720Z,2.60
2019-05-30T17:31:49.951Z,2.00
2019-05-30T17:36:54.135Z,2.20
2019-05-30T17:41:58.419Z,2.50
2019-05-30T17:47:02.644Z,2.50
2019-05-30T17:52:06.850Z,2.20
2019-05-30T17:57:11.074Z,3.58
2019-05-30T18:02:15.330Z,3.45
2019-05-30T18:07:20.737Z,3.42
2019-05-30T18:12:25.224Z,2.20
2019-05-30T18:17:29.428Z,2.22
2019-05-30T18:22:34.476Z,1.95
2019-05-30T18:27:38.748Z,2.05
2019-05-30T18:32:42.961Z,3.65
2019-05-30T18:37:47.191Z,1.67
2019-05-30T18:42:51.410Z,1.65
2019-05-30T18:47:55.646Z,1.70
2019-05-30T18:52:59.865Z,1.47
2019-05-30T18:58:07.299Z,1.95
2019-05-30T19:03:10.343Z,1.75
2019-05-30T19:08:14.563Z,1.77
2019-05-30T19:13:18.788Z,1.70
2019-05-30T19:18:23.000Z,1.67
2019-05-30T19:23:27.987Z,2.17
2019-05-30T19:28:32.594Z,2.20
2019-05-30T19:33:37.123Z,2.40
2019-05-30T19:38:41.470Z,2.02
2019-05-30T19:43:45.696Z,2.20
2019-05-30T19:48:49.895Z,2.22
2019-05-30T19:53:54.092Z,2.02
2019-05-30T19:58:58.316Z,2.27
2019-05-30T20:04:02.524Z,2.45
2019-05-30T20:09:09.067Z,2.10
2019-05-30T20:14:13.260Z,2.10
2019-05-30T20:19:17.506Z,3.00
2019-05-30T20:24:21.762Z,2.40
2019-05-30T20:29:25.977Z,2.55
2019-05-30T20:34:30.223Z,2.67
2019-05-30T20:39:34.746Z,2.92
2019-05-30T20:44:38.995Z,2.55
2019-05-30T20:49:43.451Z,2.20
2019-05-30T20:54:47.785Z,2.50
2019-05-30T20:59:52.977Z,2.10
2019-05-30T21:04:58.121Z,2.60
2019-05-30T21:10:03.533Z,2.40
2019-05-30T21:15:08.310Z,2.42
2019-05-30T21:20:12.557Z,2.58
2019-05-30T21:25:16.789Z,2.62
2019-05-30T21:30:21.099Z,2.30
2019-05-30T21:35:25.484Z,2.33
2019-05-30T21:40:29.658Z,2.60
2019-05-30T21:45:33.865Z,3.70
2019-05-30T21:50:39.297Z,2.72
2019-05-30T21:55:44.040Z,2.62
2019-05-30T22:01:35.702Z,3.20
2019-05-30T22:06:41.205Z,2.87
2019-05-30T22:11:45.672Z,2.45
2019-05-30T22:16:50.321Z,2.60
2019-05-30T22:21:54.667Z,2.67
2019-05-30T22:26:58.882Z,2.60
2019-05-30T22:32:03.140Z,2.30
2019-05-30T22:37:07.329Z,2.80
2019-05-30T22:42:11.555Z,3.00
2019-05-30T22:47:15.764Z,2.90
2019-05-30T22:52:19.974Z,3.00
2019-05-30T22:57:24.177Z,3.17
2019-05-30T23:02:28.406Z,3.02
2019-05-30T23:07:32.591Z,3.00
2019-05-30T23:12:36.791Z,3.12
2019-05-30T23:17:41.012Z,3.10
2019-05-30T23:22:45.304Z,2.92
2019-05-30T23:27:49.596Z,2.87
2019-05-30T23:32:54.201Z,3.22
2019-05-30T23:37:58.864Z,3.40
2019-05-30T23:43:03.082Z,2.72
2019-05-30T23:48:07.281Z,3.20
2019-05-30T23:53:11.470Z,3.27
2019-05-30T23:58:15.683Z,3.77
